sensor_id;sensor_type;location;lat;lon;timestamp;temperature;humidity
40287;DHT22;25998;46.604;13.610;2023-01-31T00:01:26;0.30;99.90
40287;DHT22;25998;46.604;13.610;2023-01-31T00:04:38;0.30;99.90
40287;DHT22;25998;46.604;13.610;2023-01-31T00:07:48;0.20;99.90
40287;DHT22;25998;46.604;13.610;2023-01-31T00:10:59;0.30;99.90
40287;DHT22;25998;46.604;13.610;2023-01-31T00:14:17;0.40;99.90
40287;DHT22;25998;46.604;13.610;2023-01-31T00:17:28;0.40;99.90
40287;DHT22;25998;46.604;13.610;2023-01-31T00:20:39;0.60;99.90
40287;DHT22;25998;46.604;13.610;2023-01-31T00:23:52;0.40;99.90
40287;DHT22;25998;46.604;13.610;2023-01-31T00:27:03;0.30;99.90
40287;DHT22;25998;46.604;13.610;2023-01-31T00:30:14;0.30;99.90
40287;DHT22;25998;46.604;13.610;2023-01-31T00:33:25;0.20;99.90
40287;DHT22;25998;46.604;13.610;2023-01-31T00:36:36;0.10;99.90
40287;DHT22;25998;46.604;13.610;2023-01-31T00:39:47;0.10;99.90
40287;DHT22;25998;46.604;13.610;2023-01-31T00:42:58;0.20;99.90
40287;DHT22;25998;46.604;13.610;2023-01-31T00:46:08;0.10;99.90
40287;DHT22;25998;46.604;13.610;2023-01-31T00:49:20;0.10;99.90
40287;DHT22;25998;46.604;13.610;2023-01-31T00:52:31;-0.10;99.90
40287;DHT22;25998;46.604;13.610;2023-01-31T00:55:43;-0.10;99.90
40287;DHT22;25998;46.604;13.610;2023-01-31T00:58:54;0.00;99.90
40287;DHT22;25998;46.604;13.610;2023-01-31T01:02:05;0.00;99.90
40287;DHT22;25998;46.604;13.610;2023-01-31T01:05:16;0.10;99.90
40287;DHT22;25998;46.604;13.610;2023-01-31T01:08:28;-0.10;99.90
40287;DHT22;25998;46.604;13.610;2023-01-31T01:11:39;0.00;99.90
40287;DHT22;25998;46.604;13.610;2023-01-31T01:14:50;-0.10;99.90
40287;DHT22;25998;46.604;13.610;2023-01-31T01:18:01;-0.10;99.90
40287;DHT22;25998;46.604;13.610;2023-01-31T01:21:14;-0.20;99.90
40287;DHT22;25998;46.604;13.610;2023-01-31T01:24:25;-0.10;99.90
40287;DHT22;25998;46.604;13.610;2023-01-31T01:27:36;-0.10;99.90
40287;DHT22;25998;46.604;13.610;2023-01-31T01:30:47;0.00;99.90
40287;DHT22;25998;46.604;13.610;2023-01-31T01:34:06;-0.10;99.90
40287;DHT22;25998;46.604;13.610;2023-01-31T01:37:17;-0.10;99.90
40287;DHT22;25998;46.604;13.610;2023-01-31T01:40:35;-0.10;99.90
40287;DHT22;25998;46.604;13.610;2023-01-31T01:44:40;-0.10;99.90
40287;DHT22;25998;46.604;13.610;2023-01-31T01:50:43;0.00;99.90
40287;DHT22;25998;46.604;13.610;2023-01-31T01:53:57;-0.10;99.90
40287;DHT22;25998;46.604;13.610;2023-01-31T01:57:11;-0.30;99.90
40287;DHT22;25998;46.604;13.610;2023-01-31T02:00:27;-0.40;99.90
40287;DHT22;25998;46.604;13.610;2023-01-31T02:03:40;-0.30;99.90
40287;DHT22;25998;46.604;13.610;2023-01-31T02:06:53;-0.20;99.90
40287;DHT22;25998;46.604;13.610;2023-01-31T02:13:20;-0.40;99.90
40287;DHT22;25998;46.604;13.610;2023-01-31T02:16:31;-0.40;99.90
40287;DHT22;25998;46.604;13.610;2023-01-31T02:19:48;-0.20;99.90
40287;DHT22;25998;46.604;13.610;2023-01-31T02:30:12;-0.10;99.90
40287;DHT22;25998;46.604;13.610;2023-01-31T02:33:59;0.00;99.90
40287;DHT22;25998;46.604;13.610;2023-01-31T02:37:28;0.00;99.90
40287;DHT22;25998;46.604;13.610;2023-01-31T02:41:15;0.10;99.90
40287;DHT22;25998;46.604;13.610;2023-01-31T02:44:59;0.20;99.90
40287;DHT22;25998;46.604;13.610;2023-01-31T02:48:17;0.00;99.90
40287;DHT22;25998;46.604;13.610;2023-01-31T02:51:40;-0.10;99.90
40287;DHT22;25998;46.604;13.610;2023-01-31T02:55:16;-0.10;99.90
40287;DHT22;25998;46.604;13.610;2023-01-31T02:59:06;-0.30;99.90
40287;DHT22;25998;46.604;13.610;2023-01-31T03:02:18;-0.80;99.90
40287;DHT22;25998;46.604;13.610;2023-01-31T03:05:29;-0.90;99.90
40287;DHT22;25998;46.604;13.610;2023-01-31T03:08:43;-1.00;99.90
40287;DHT22;25998;46.604;13.610;2023-01-31T03:18:53;-0.90;99.90
40287;DHT22;25998;46.604;13.610;2023-01-31T03:22:12;-0.80;99.90
40287;DHT22;25998;46.604;13.610;2023-01-31T03:25:31;-0.70;99.90
40287;DHT22;25998;46.604;13.610;2023-01-31T03:28:44;-0.70;99.90
40287;DHT22;25998;46.604;13.610;2023-01-31T03:31:59;-0.90;99.90
40287;DHT22;25998;46.604;13.610;2023-01-31T03:35:12;-0.70;99.90
40287;DHT22;25998;46.604;13.610;2023-01-31T03:38:33;-0.70;99.90
40287;DHT22;25998;46.604;13.610;2023-01-31T03:41:59;-0.70;99.90
40287;DHT22;25998;46.604;13.610;2023-01-31T03:45:22;-0.80;99.90
40287;DHT22;25998;46.604;13.610;2023-01-31T03:48:40;-1.00;99.90
40287;DHT22;25998;46.604;13.610;2023-01-31T03:51:58;-1.20;99.90
40287;DHT22;25998;46.604;13.610;2023-01-31T03:55:16;-1.00;99.90
40287;DHT22;25998;46.604;13.610;2023-01-31T03:58:37;-1.10;99.90
40287;DHT22;25998;46.604;13.610;2023-01-31T04:01:53;-1.20;99.90
40287;DHT22;25998;46.604;13.610;2023-01-31T04:05:17;-1.10;99.90
40287;DHT22;25998;46.604;13.610;2023-01-31T04:08:33;-1.10;99.90
40287;DHT22;25998;46.604;13.610;2023-01-31T04:11:48;-1.20;99.90
40287;DHT22;25998;46.604;13.610;2023-01-31T04:14:59;-1.30;99.90
40287;DHT22;25998;46.604;13.610;2023-01-31T04:18:10;-1.10;99.90
40287;DHT22;25998;46.604;13.610;2023-01-31T04:21:23;-1.00;99.90
40287;DHT22;25998;46.604;13.610;2023-01-31T04:24:34;-1.20;99.90
40287;DHT22;25998;46.604;13.610;2023-01-31T04:27:45;-1.20;99.90
40287;DHT22;25998;46.604;13.610;2023-01-31T04:30:56;-1.00;99.90
40287;DHT22;25998;46.604;13.610;2023-01-31T04:34:07;-1.20;99.90
40287;DHT22;25998;46.604;13.610;2023-01-31T04:37:18;-1.30;99.90
40287;DHT22;25998;46.604;13.610;2023-01-31T04:40:29;-1.30;99.90
40287;DHT22;25998;46.604;13.610;2023-01-31T04:43:40;-1.10;99.90
40287;DHT22;25998;46.604;13.610;2023-01-31T04:46:50;-1.00;99.90
40287;DHT22;25998;46.604;13.610;2023-01-31T04:50:01;-0.80;99.90
40287;DHT22;25998;46.604;13.610;2023-01-31T04:53:12;-0.70;99.90
40287;DHT22;25998;46.604;13.610;2023-01-31T04:56:23;-0.80;99.90
40287;DHT22;25998;46.604;13.610;2023-01-31T04:59:34;-1.00;99.90
40287;DHT22;25998;46.604;13.610;2023-01-31T05:02:44;-1.10;99.90
40287;DHT22;25998;46.604;13.610;2023-01-31T05:05:55;-1.30;99.90
40287;DHT22;25998;46.604;13.610;2023-01-31T05:09:06;-1.50;99.90
40287;DHT22;25998;46.604;13.610;2023-01-31T05:12:17;-1.60;99.90
40287;DHT22;25998;46.604;13.610;2023-01-31T05:15:28;-1.60;99.90
40287;DHT22;25998;46.604;13.610;2023-01-31T05:18:39;-1.30;99.90
40287;DHT22;25998;46.604;13.610;2023-01-31T05:21:50;-1.10;99.90
40287;DHT22;25998;46.604;13.610;2023-01-31T05:25:09;-1.00;99.90
40287;DHT22;25998;46.604;13.610;2023-01-31T05:28:20;-0.90;99.90
40287;DHT22;25998;46.604;13.610;2023-01-31T05:31:31;-0.80;99.90
40287;DHT22;25998;46.604;13.610;2023-01-31T05:34:42;-1.00;99.90
40287;DHT22;25998;46.604;13.610;2023-01-31T05:37:54;-1.20;99.90
40287;DHT22;25998;46.604;13.610;2023-01-31T05:41:04;-1.30;99.90
40287;DHT22;25998;46.604;13.610;2023-01-31T05:44:15;-1.40;99.90
40287;DHT22;25998;46.604;13.610;2023-01-31T05:47:26;-1.40;99.90
40287;DHT22;25998;46.604;13.610;2023-01-31T05:50:37;-1.20;99.90
40287;DHT22;25998;46.604;13.610;2023-01-31T05:53:48;-1.20;99.90
40287;DHT22;25998;46.604;13.610;2023-01-31T05:56:59;-1.10;99.90
40287;DHT22;25998;46.604;13.610;2023-01-31T06:00:10;-1.10;99.90
40287;DHT22;25998;46.604;13.610;2023-01-31T06:03:21;-1.20;99.90
40287;DHT22;25998;46.604;13.610;2023-01-31T06:06:32;-1.40;99.90
40287;DHT22;25998;46.604;13.610;2023-01-31T06:09:43;-1.50;99.90
40287;DHT22;25998;46.604;13.610;2023-01-31T06:12:54;-1.50;99.90
40287;DHT22;25998;46.604;13.610;2023-01-31T06:16:05;-1.50;99.90
40287;DHT22;25998;46.604;13.610;2023-01-31T06:19:16;-1.50;99.90
40287;DHT22;25998;46.604;13.610;2023-01-31T06:22:27;-1.50;99.90
40287;DHT22;25998;46.604;13.610;2023-01-31T06:25:37;-1.60;99.90
40287;DHT22;25998;46.604;13.610;2023-01-31T06:28:48;-1.60;99.90
40287;DHT22;25998;46.604;13.610;2023-01-31T06:31:59;-1.60;99.90
40287;DHT22;25998;46.604;13.610;2023-01-31T06:35:10;-1.50;99.90
40287;DHT22;25998;46.604;13.610;2023-01-31T06:38:21;-1.50;99.90
40287;DHT22;25998;46.604;13.610;2023-01-31T06:41:32;-1.40;99.90
40287;DHT22;25998;46.604;13.610;2023-01-31T06:44:42;-1.20;99.90
40287;DHT22;25998;46.604;13.610;2023-01-31T06:47:53;-1.10;99.90
40287;DHT22;25998;46.604;13.610;2023-01-31T06:51:04;-1.10;99.90
40287;DHT22;25998;46.604;13.610;2023-01-31T06:54:15;-1.10;99.90
40287;DHT22;25998;46.604;13.610;2023-01-31T06:57:26;-1.20;99.90
40287;DHT22;25998;46.604;13.610;2023-01-31T07:00:37;-1.30;99.90
40287;DHT22;25998;46.604;13.610;2023-01-31T07:03:47;-1.30;99.90
40287;DHT22;25998;46.604;13.610;2023-01-31T07:06:58;-1.20;99.90
40287;DHT22;25998;46.604;13.610;2023-01-31T07:10:10;-1.30;99.90
40287;DHT22;25998;46.604;13.610;2023-01-31T07:13:21;-1.10;99.90
40287;DHT22;25998;46.604;13.610;2023-01-31T07:16:32;-1.00;99.90
40287;DHT22;25998;46.604;13.610;2023-01-31T07:19:43;-1.00;99.90
40287;DHT22;25998;46.604;13.610;2023-01-31T07:22:57;-1.00;99.90
40287;DHT22;25998;46.604;13.610;2023-01-31T07:26:08;-0.90;99.90
40287;DHT22;25998;46.604;13.610;2023-01-31T07:29:19;-1.00;99.90
40287;DHT22;25998;46.604;13.610;2023-01-31T07:32:30;-0.90;99.90
40287;DHT22;25998;46.604;13.610;2023-01-31T07:35:41;-1.00;99.90
40287;DHT22;25998;46.604;13.610;2023-01-31T07:38:54;-1.00;99.90
40287;DHT22;25998;46.604;13.610;2023-01-31T07:42:05;-0.90;99.90
40287;DHT22;25998;46.604;13.610;2023-01-31T07:45:16;-0.90;99.90
40287;DHT22;25998;46.604;13.610;2023-01-31T07:48:27;-0.80;99.90
40287;DHT22;25998;46.604;13.610;2023-01-31T07:51:38;-0.60;99.90
40287;DHT22;25998;46.604;13.610;2023-01-31T07:54:49;-0.70;99.90
40287;DHT22;25998;46.604;13.610;2023-01-31T07:58:00;-0.70;99.90
40287;DHT22;25998;46.604;13.610;2023-01-31T08:01:19;-0.60;99.90
40287;DHT22;25998;46.604;13.610;2023-01-31T08:04:49;-0.70;99.90
40287;DHT22;25998;46.604;13.610;2023-01-31T08:07:59;-0.70;99.90
40287;DHT22;25998;46.604;13.610;2023-01-31T08:11:19;-0.60;99.90
40287;DHT22;25998;46.604;13.610;2023-01-31T08:14:30;-0.70;99.90
40287;DHT22;25998;46.604;13.610;2023-01-31T08:17:42;-0.60;99.90
40287;DHT22;25998;46.604;13.610;2023-01-31T08:20:53;-0.50;99.90
40287;DHT22;25998;46.604;13.610;2023-01-31T08:24:05;-0.50;99.90
40287;DHT22;25998;46.604;13.610;2023-01-31T08:27:16;-0.60;99.90
40287;DHT22;25998;46.604;13.610;2023-01-31T08:30:28;-0.50;99.90
40287;DHT22;25998;46.604;13.610;2023-01-31T08:33:39;-0.60;99.90
40287;DHT22;25998;46.604;13.610;2023-01-31T08:36:50;-0.50;99.90
40287;DHT22;25998;46.604;13.610;2023-01-31T08:40:01;-0.50;99.90
40287;DHT22;25998;46.604;13.610;2023-01-31T08:43:11;-0.60;99.90
40287;DHT22;25998;46.604;13.610;2023-01-31T08:46:24;-0.60;99.90
40287;DHT22;25998;46.604;13.610;2023-01-31T08:49:36;-0.50;99.90
40287;DHT22;25998;46.604;13.610;2023-01-31T08:52:50;-0.30;99.90
40287;DHT22;25998;46.604;13.610;2023-01-31T08:56:03;-0.30;99.90
40287;DHT22;25998;46.604;13.610;2023-01-31T08:59:14;-0.20;99.90
40287;DHT22;25998;46.604;13.610;2023-01-31T09:02:25;-0.10;99.90
40287;DHT22;25998;46.604;13.610;2023-01-31T09:05:36;0.40;99.90
40287;DHT22;25998;46.604;13.610;2023-01-31T09:08:47;1.10;99.90
40287;DHT22;25998;46.604;13.610;2023-01-31T09:11:58;1.90;99.90
40287;DHT22;25998;46.604;13.610;2023-01-31T09:15:09;3.10;99.90
40287;DHT22;25998;46.604;13.610;2023-01-31T09:18:20;3.70;99.90
40287;DHT22;25998;46.604;13.610;2023-01-31T09:21:31;4.30;99.90
40287;DHT22;25998;46.604;13.610;2023-01-31T09:24:42;5.00;99.20
40287;DHT22;25998;46.604;13.610;2023-01-31T09:27:53;5.70;97.40
40287;DHT22;25998;46.604;13.610;2023-01-31T09:31:06;6.40;96.50
40287;DHT22;25998;46.604;13.610;2023-01-31T09:34:17;6.80;95.00
40287;DHT22;25998;46.604;13.610;2023-01-31T09:37:29;7.10;94.90
40287;DHT22;25998;46.604;13.610;2023-01-31T09:40:40;7.20;93.80
40287;DHT22;25998;46.604;13.610;2023-01-31T09:44:19;7.40;94.00
40287;DHT22;25998;46.604;13.610;2023-01-31T09:47:48;7.70;94.20
40287;DHT22;25998;46.604;13.610;2023-01-31T09:51:00;7.80;93.70
40287;DHT22;25998;46.604;13.610;2023-01-31T09:54:26;8.00;93.80
40287;DHT22;25998;46.604;13.610;2023-01-31T10:01:05;8.40;90.50
40287;DHT22;25998;46.604;13.610;2023-01-31T10:12:39;8.60;90.10
40287;DHT22;25998;46.604;13.610;2023-01-31T10:15:43;7.80;90.70
40287;DHT22;25998;46.604;13.610;2023-01-31T10:19:18;8.10;91.10
40287;DHT22;25998;46.604;13.610;2023-01-31T10:22:37;8.60;90.00
40287;DHT22;25998;46.604;13.610;2023-01-31T10:26:01;9.10;90.30
40287;DHT22;25998;46.604;13.610;2023-01-31T10:29:35;9.30;86.30
40287;DHT22;25998;46.604;13.610;2023-01-31T10:32:52;8.90;87.00
40287;DHT22;25998;46.604;13.610;2023-01-31T10:36:12;8.50;87.40
40287;DHT22;25998;46.604;13.610;2023-01-31T10:39:32;8.40;89.40
40287;DHT22;25998;46.604;13.610;2023-01-31T10:42:52;8.70;87.20
40287;DHT22;25998;46.604;13.610;2023-01-31T10:46:12;8.50;87.40
40287;DHT22;25998;46.604;13.610;2023-01-31T10:49:25;8.70;85.10
40287;DHT22;25998;46.604;13.610;2023-01-31T10:52:44;9.20;83.70
40287;DHT22;25998;46.604;13.610;2023-01-31T10:59:44;9.80;87.70
40287;DHT22;25998;46.604;13.610;2023-01-31T11:02:57;9.70;87.60
40287;DHT22;25998;46.604;13.610;2023-01-31T11:06:11;9.70;86.80
40287;DHT22;25998;46.604;13.610;2023-01-31T11:09:22;9.90;87.40
40287;DHT22;25998;46.604;13.610;2023-01-31T11:12:53;9.30;84.00
40287;DHT22;25998;46.604;13.610;2023-01-31T11:16:08;8.70;85.80
40287;DHT22;25998;46.604;13.610;2023-01-31T11:19:48;8.70;81.50
40287;DHT22;25998;46.604;13.610;2023-01-31T11:23:01;8.70;83.20
40287;DHT22;25998;46.604;13.610;2023-01-31T11:26:12;8.80;83.30
40287;DHT22;25998;46.604;13.610;2023-01-31T11:29:46;9.10;80.90
40287;DHT22;25998;46.604;13.610;2023-01-31T11:32:58;9.20;80.20
40287;DHT22;25998;46.604;13.610;2023-01-31T11:36:13;9.40;81.20
40287;DHT22;25998;46.604;13.610;2023-01-31T11:39:31;9.50;79.10
40287;DHT22;25998;46.604;13.610;2023-01-31T11:42:54;9.50;77.00
40287;DHT22;25998;46.604;13.610;2023-01-31T11:46:07;9.50;76.70
40287;DHT22;25998;46.604;13.610;2023-01-31T11:49:39;9.50;77.30
40287;DHT22;25998;46.604;13.610;2023-01-31T11:52:59;9.50;76.40
40287;DHT22;25998;46.604;13.610;2023-01-31T11:56:21;9.80;76.90
40287;DHT22;25998;46.604;13.610;2023-01-31T11:59:39;9.20;78.20
40287;DHT22;25998;46.604;13.610;2023-01-31T12:03:07;9.30;78.80
40287;DHT22;25998;46.604;13.610;2023-01-31T12:09:43;9.10;74.50
40287;DHT22;25998;46.604;13.610;2023-01-31T12:12:57;9.20;74.50
40287;DHT22;25998;46.604;13.610;2023-01-31T12:16:12;9.40;74.70
40287;DHT22;25998;46.604;13.610;2023-01-31T12:26:24;9.10;72.70
40287;DHT22;25998;46.604;13.610;2023-01-31T12:30:02;9.20;73.80
40287;DHT22;25998;46.604;13.610;2023-01-31T12:36:59;9.40;85.10
40287;DHT22;25998;46.604;13.610;2023-01-31T12:40:28;9.60;82.40
40287;DHT22;25998;46.604;13.610;2023-01-31T12:51:18;9.50;77.20
40287;DHT22;25998;46.604;13.610;2023-01-31T12:54:48;8.70;75.30
40287;DHT22;25998;46.604;13.610;2023-01-31T13:01:49;8.60;85.00
40287;DHT22;25998;46.604;13.610;2023-01-31T13:05:22;8.70;87.80
40287;DHT22;25998;46.604;13.610;2023-01-31T13:08:34;9.00;84.30
40287;DHT22;25998;46.604;13.610;2023-01-31T13:15:26;9.10;84.20
40287;DHT22;25998;46.604;13.610;2023-01-31T13:18:39;9.00;86.00
40287;DHT22;25998;46.604;13.610;2023-01-31T13:21:56;9.00;82.60
40287;DHT22;25998;46.604;13.610;2023-01-31T13:28:28;9.00;84.10
40287;DHT22;25998;46.604;13.610;2023-01-31T13:31:54;8.60;86.10
40287;DHT22;25998;46.604;13.610;2023-01-31T13:35:21;8.40;87.40
40287;DHT22;25998;46.604;13.610;2023-01-31T13:38:40;8.50;86.60
40287;DHT22;25998;46.604;13.610;2023-01-31T13:41:51;8.30;87.80
40287;DHT22;25998;46.604;13.610;2023-01-31T13:45:06;8.10;89.00
40287;DHT22;25998;46.604;13.610;2023-01-31T13:48:32;8.00;88.80
40287;DHT22;25998;46.604;13.610;2023-01-31T13:52:26;8.10;89.90
40287;DHT22;25998;46.604;13.610;2023-01-31T13:55:44;8.10;87.90
40287;DHT22;25998;46.604;13.610;2023-01-31T13:58:56;8.10;89.20
40287;DHT22;25998;46.604;13.610;2023-01-31T14:02:17;7.90;90.10
40287;DHT22;25998;46.604;13.610;2023-01-31T14:08:58;7.50;91.60
40287;DHT22;25998;46.604;13.610;2023-01-31T14:15:45;7.50;92.50
40287;DHT22;25998;46.604;13.610;2023-01-31T14:18:56;7.30;93.00
40287;DHT22;25998;46.604;13.610;2023-01-31T14:25:41;7.20;93.20
40287;DHT22;25998;46.604;13.610;2023-01-31T14:28:52;7.30;93.60
40287;DHT22;25998;46.604;13.610;2023-01-31T14:32:15;7.20;93.50
40287;DHT22;25998;46.604;13.610;2023-01-31T14:49:59;7.50;92.60
40287;DHT22;25998;46.604;13.610;2023-01-31T15:00:30;7.10;92.80
40287;DHT22;25998;46.604;13.610;2023-01-31T15:03:54;6.80;93.00
40287;DHT22;25998;46.604;13.610;2023-01-31T15:07:14;6.70;93.50
40287;DHT22;25998;46.604;13.610;2023-01-31T15:11:01;6.40;93.50
40287;DHT22;25998;46.604;13.610;2023-01-31T15:14:37;6.40;93.50
40287;DHT22;25998;46.604;13.610;2023-01-31T15:17:53;6.30;93.40
40287;DHT22;25998;46.604;13.610;2023-01-31T15:21:05;6.20;93.30
40287;DHT22;25998;46.604;13.610;2023-01-31T15:24:29;6.00;93.40
40287;DHT22;25998;46.604;13.610;2023-01-31T15:27:41;5.70;93.90
40287;DHT22;25998;46.604;13.610;2023-01-31T15:30:55;5.50;94.50
40287;DHT22;25998;46.604;13.610;2023-01-31T15:34:15;5.40;94.70
40287;DHT22;25998;46.604;13.610;2023-01-31T15:37:31;5.10;95.20
40287;DHT22;25998;46.604;13.610;2023-01-31T15:40:43;4.80;95.80
40287;DHT22;25998;46.604;13.610;2023-01-31T15:43:55;4.90;95.50
40287;DHT22;25998;46.604;13.610;2023-01-31T15:47:21;4.90;95.20
40287;DHT22;25998;46.604;13.610;2023-01-31T15:50:33;4.60;96.10
40287;DHT22;25998;46.604;13.610;2023-01-31T15:53:44;4.50;96.40
40287;DHT22;25998;46.604;13.610;2023-01-31T15:56:57;4.50;96.10
40287;DHT22;25998;46.604;13.610;2023-01-31T16:00:21;4.10;96.80
40287;DHT22;25998;46.604;13.610;2023-01-31T16:03:40;4.00;97.20
40287;DHT22;25998;46.604;13.610;2023-01-31T16:06:51;4.10;97.00
40287;DHT22;25998;46.604;13.610;2023-01-31T16:10:02;3.80;97.20
40287;DHT22;25998;46.604;13.610;2023-01-31T16:13:14;3.90;97.40
40287;DHT22;25998;46.604;13.610;2023-01-31T16:16:25;3.80;97.00
40287;DHT22;25998;46.604;13.610;2023-01-31T16:19:37;3.70;97.40
40287;DHT22;25998;46.604;13.610;2023-01-31T16:22:55;3.80;97.40
40287;DHT22;25998;46.604;13.610;2023-01-31T16:26:11;3.70;97.70
40287;DHT22;25998;46.604;13.610;2023-01-31T16:29:46;3.60;97.30
40287;DHT22;25998;46.604;13.610;2023-01-31T16:32:55;3.70;97.30
40287;DHT22;25998;46.604;13.610;2023-01-31T16:36:10;3.80;96.90
40287;DHT22;25998;46.604;13.610;2023-01-31T16:39:43;3.90;96.90
40287;DHT22;25998;46.604;13.610;2023-01-31T16:46:38;3.80;96.80
40287;DHT22;25998;46.604;13.610;2023-01-31T16:49:49;3.80;96.80
40287;DHT22;25998;46.604;13.610;2023-01-31T16:53:17;3.70;96.80
40287;DHT22;25998;46.604;13.610;2023-01-31T16:56:29;3.70;96.90
40287;DHT22;25998;46.604;13.610;2023-01-31T16:59:43;3.30;97.20
40287;DHT22;25998;46.604;13.610;2023-01-31T17:02:58;3.00;97.40
40287;DHT22;25998;46.604;13.610;2023-01-31T17:06:17;3.10;97.90
40287;DHT22;25998;46.604;13.610;2023-01-31T17:09:29;3.20;98.10
40287;DHT22;25998;46.604;13.610;2023-01-31T17:12:43;3.30;96.90
40287;DHT22;25998;46.604;13.610;2023-01-31T17:15:53;3.10;97.10
40287;DHT22;25998;46.604;13.610;2023-01-31T17:19:04;2.90;97.80
40287;DHT22;25998;46.604;13.610;2023-01-31T17:22:15;2.90;97.80
40287;DHT22;25998;46.604;13.610;2023-01-31T17:25:33;2.60;98.30
40287;DHT22;25998;46.604;13.610;2023-01-31T17:28:46;2.80;99.20
40287;DHT22;25998;46.604;13.610;2023-01-31T17:31:58;2.60;98.70
40287;DHT22;25998;46.604;13.610;2023-01-31T17:35:20;2.50;99.30
40287;DHT22;25998;46.604;13.610;2023-01-31T17:38:32;2.40;99.00
40287;DHT22;25998;46.604;13.610;2023-01-31T17:41:43;2.30;99.80
40287;DHT22;25998;46.604;13.610;2023-01-31T17:44:56;2.50;99.60
40287;DHT22;25998;46.604;13.610;2023-01-31T17:48:07;2.40;99.30
40287;DHT22;25998;46.604;13.610;2023-01-31T17:51:17;2.20;99.70
40287;DHT22;25998;46.604;13.610;2023-01-31T17:54:28;2.30;99.70
40287;DHT22;25998;46.604;13.610;2023-01-31T17:57:39;2.30;99.30
40287;DHT22;25998;46.604;13.610;2023-01-31T18:00:53;2.10;99.80
40287;DHT22;25998;46.604;13.610;2023-01-31T18:04:08;2.10;99.90
40287;DHT22;25998;46.604;13.610;2023-01-31T18:07:19;2.40;99.50
40287;DHT22;25998;46.604;13.610;2023-01-31T18:10:30;2.50;99.20
40287;DHT22;25998;46.604;13.610;2023-01-31T18:13:41;2.40;99.10
40287;DHT22;25998;46.604;13.610;2023-01-31T18:16:52;2.30;99.20
40287;DHT22;25998;46.604;13.610;2023-01-31T18:20:04;2.30;99.40
40287;DHT22;25998;46.604;13.610;2023-01-31T18:23:15;2.20;99.20
40287;DHT22;25998;46.604;13.610;2023-01-31T18:26:26;2.00;99.70
40287;DHT22;25998;46.604;13.610;2023-01-31T18:29:37;2.10;99.90
40287;DHT22;25998;46.604;13.610;2023-01-31T18:32:47;2.00;99.70
40287;DHT22;25998;46.604;13.610;2023-01-31T18:36:00;2.00;99.90
40287;DHT22;25998;46.604;13.610;2023-01-31T18:39:10;1.90;99.90
40287;DHT22;25998;46.604;13.610;2023-01-31T18:42:21;1.70;99.90
40287;DHT22;25998;46.604;13.610;2023-01-31T18:45:36;1.60;99.90
40287;DHT22;25998;46.604;13.610;2023-01-31T18:48:47;1.70;99.90
40287;DHT22;25998;46.604;13.610;2023-01-31T18:51:58;1.50;99.90
40287;DHT22;25998;46.604;13.610;2023-01-31T18:55:09;1.50;99.90
40287;DHT22;25998;46.604;13.610;2023-01-31T18:58:20;1.50;99.90
40287;DHT22;25998;46.604;13.610;2023-01-31T19:01:31;1.70;99.90
40287;DHT22;25998;46.604;13.610;2023-01-31T19:04:42;1.70;99.90
40287;DHT22;25998;46.604;13.610;2023-01-31T19:07:53;1.80;99.90
40287;DHT22;25998;46.604;13.610;2023-01-31T19:11:06;1.80;99.90
40287;DHT22;25998;46.604;13.610;2023-01-31T19:14:18;1.60;99.90
40287;DHT22;25998;46.604;13.610;2023-01-31T19:17:29;1.50;99.90
40287;DHT22;25998;46.604;13.610;2023-01-31T19:20:40;1.70;99.90
40287;DHT22;25998;46.604;13.610;2023-01-31T19:23:54;1.70;99.90
40287;DHT22;25998;46.604;13.610;2023-01-31T19:27:05;1.70;99.90
40287;DHT22;25998;46.604;13.610;2023-01-31T19:30:16;1.50;99.90
40287;DHT22;25998;46.604;13.610;2023-01-31T19:33:27;1.30;99.90
40287;DHT22;25998;46.604;13.610;2023-01-31T19:36:39;1.30;99.90
40287;DHT22;25998;46.604;13.610;2023-01-31T19:39:50;1.40;99.90
40287;DHT22;25998;46.604;13.610;2023-01-31T19:43:01;1.40;99.90
40287;DHT22;25998;46.604;13.610;2023-01-31T19:46:12;1.10;99.90
40287;DHT22;25998;46.604;13.610;2023-01-31T19:49:22;1.10;99.90
40287;DHT22;25998;46.604;13.610;2023-01-31T19:52:33;1.10;99.90
40287;DHT22;25998;46.604;13.610;2023-01-31T19:55:52;0.90;99.90
40287;DHT22;25998;46.604;13.610;2023-01-31T19:59:05;1.00;99.90
40287;DHT22;25998;46.604;13.610;2023-01-31T20:02:16;1.00;99.90
40287;DHT22;25998;46.604;13.610;2023-01-31T20:05:27;1.20;99.90
40287;DHT22;25998;46.604;13.610;2023-01-31T20:08:38;1.20;99.90
40287;DHT22;25998;46.604;13.610;2023-01-31T20:11:49;1.00;99.90
40287;DHT22;25998;46.604;13.610;2023-01-31T20:15:01;1.00;99.90
40287;DHT22;25998;46.604;13.610;2023-01-31T20:18:12;1.00;99.70
40287;DHT22;25998;46.604;13.610;2023-01-31T20:21:23;0.90;99.90
40287;DHT22;25998;46.604;13.610;2023-01-31T20:24:34;0.70;99.90
40287;DHT22;25998;46.604;13.610;2023-01-31T20:27:44;0.90;99.90
40287;DHT22;25998;46.604;13.610;2023-01-31T20:31:05;0.70;99.90
40287;DHT22;25998;46.604;13.610;2023-01-31T20:34:16;0.80;99.90
40287;DHT22;25998;46.604;13.610;2023-01-31T20:37:29;0.60;99.90
40287;DHT22;25998;46.604;13.610;2023-01-31T20:40:48;0.60;99.90
40287;DHT22;25998;46.604;13.610;2023-01-31T20:43:59;0.60;99.90
40287;DHT22;25998;46.604;13.610;2023-01-31T20:47:10;0.40;99.90
40287;DHT22;25998;46.604;13.610;2023-01-31T20:50:21;0.30;99.90
40287;DHT22;25998;46.604;13.610;2023-01-31T20:53:32;0.20;99.90
40287;DHT22;25998;46.604;13.610;2023-01-31T20:56:43;0.30;99.90
40287;DHT22;25998;46.604;13.610;2023-01-31T20:59:54;0.40;99.90
40287;DHT22;25998;46.604;13.610;2023-01-31T21:03:05;0.40;99.90
40287;DHT22;25998;46.604;13.610;2023-01-31T21:06:16;0.40;99.90
40287;DHT22;25998;46.604;13.610;2023-01-31T21:09:29;0.40;99.90
40287;DHT22;25998;46.604;13.610;2023-01-31T21:12:40;0.60;99.90
40287;DHT22;25998;46.604;13.610;2023-01-31T21:15:55;0.70;99.90
40287;DHT22;25998;46.604;13.610;2023-01-31T21:19:06;0.80;99.90
40287;DHT22;25998;46.604;13.610;2023-01-31T21:22:17;0.60;99.90
40287;DHT22;25998;46.604;13.610;2023-01-31T21:25:28;0.40;99.90
40287;DHT22;25998;46.604;13.610;2023-01-31T21:28:40;0.20;99.90
40287;DHT22;25998;46.604;13.610;2023-01-31T21:31:53;0.20;99.90
40287;DHT22;25998;46.604;13.610;2023-01-31T21:35:04;0.40;99.90
40287;DHT22;25998;46.604;13.610;2023-01-31T21:38:15;0.20;99.90
40287;DHT22;25998;46.604;13.610;2023-01-31T21:41:25;0.10;99.90
40287;DHT22;25998;46.604;13.610;2023-01-31T21:44:55;0.20;99.90
40287;DHT22;25998;46.604;13.610;2023-01-31T21:48:07;0.30;99.90
40287;DHT22;25998;46.604;13.610;2023-01-31T21:51:37;0.50;99.90
40287;DHT22;25998;46.604;13.610;2023-01-31T21:54:48;0.60;99.90
40287;DHT22;25998;46.604;13.610;2023-01-31T21:57:59;0.80;99.90
40287;DHT22;25998;46.604;13.610;2023-01-31T22:01:16;0.40;99.90
40287;DHT22;25998;46.604;13.610;2023-01-31T22:04:30;0.30;99.90
40287;DHT22;25998;46.604;13.610;2023-01-31T22:07:40;0.20;99.90